sensor_id;sensor_type;location;lat;lon;timestamp;pressure;altitude;pressure_sealevel;temperature;humidity
13867;BME280;7003;46.982;15.248;2023-05-22T00:00:36;97131.09;;;12.96;100.00
13867;BME280;7003;46.982;15.248;2023-05-22T00:03:03;97130.13;;;12.89;100.00
13867;BME280;7003;46.982;15.248;2023-05-22T00:05:33;97133.03;;;12.84;100.00
13867;BME280;7003;46.982;15.248;2023-05-22T00:08:06;97135.47;;;12.89;100.00
13867;BME280;7003;46.982;15.248;2023-05-22T00:10:36;97138.00;;;12.97;100.00
13867;BME280;7003;46.982;15.248;2023-05-22T00:13:03;97132.78;;;12.89;100.00
13867;BME280;7003;46.982;15.248;2023-05-22T00:15:32;97136.72;;;13.07;100.00
13867;BME280;7003;46.982;15.248;2023-05-22T00:17:59;97131.69;;;12.90;100.00
13867;BME280;7003;46.982;15.248;2023-05-22T00:20:27;97124.13;;;12.92;100.00
13867;BME280;7003;46.982;15.248;2023-05-22T00:22:54;97124.34;;;12.87;100.00
13867;BME280;7003;46.982;15.248;2023-05-22T00:25:22;97124.69;;;12.85;100.00
13867;BME280;7003;46.982;15.248;2023-05-22T00:27:49;97118.66;;;12.88;100.00
13867;BME280;7003;46.982;15.248;2023-05-22T00:30:17;97118.00;;;12.91;100.00
13867;BME280;7003;46.982;15.248;2023-05-22T00:32:48;97115.03;;;12.81;100.00
13867;BME280;7003;46.982;15.248;2023-05-22T00:35:14;97100.84;;;12.64;100.00
13867;BME280;7003;46.982;15.248;2023-05-22T00:37:42;97108.47;;;12.78;100.00
13867;BME280;7003;46.982;15.248;2023-05-22T00:40:13;97102.66;;;12.88;100.00
13867;BME280;7003;46.982;15.248;2023-05-22T00:42:42;97109.78;;;12.84;100.00
13867;BME280;7003;46.982;15.248;2023-05-22T00:45:10;97108.56;;;12.82;100.00
13867;BME280;7003;46.982;15.248;2023-05-22T00:47:40;97104.69;;;12.79;100.00
13867;BME280;7003;46.982;15.248;2023-05-22T00:50:11;97107.00;;;12.81;100.00
13867;BME280;7003;46.982;15.248;2023-05-22T00:52:40;97107.94;;;12.72;100.00
13867;BME280;7003;46.982;15.248;2023-05-22T00:55:09;97103.50;;;12.77;100.00
13867;BME280;7003;46.982;15.248;2023-05-22T00:57:37;97100.25;;;12.71;100.00
13867;BME280;7003;46.982;15.248;2023-05-22T01:00:07;97097.13;;;12.81;100.00
13867;BME280;7003;46.982;15.248;2023-05-22T01:02:42;97090.69;;;12.70;100.00
13867;BME280;7003;46.982;15.248;2023-05-22T01:05:11;97095.94;;;12.66;100.00
13867;BME280;7003;46.982;15.248;2023-05-22T01:07:43;97086.06;;;12.67;100.00
13867;BME280;7003;46.982;15.248;2023-05-22T01:10:12;97088.13;;;12.73;100.00
13867;BME280;7003;46.982;15.248;2023-05-22T01:12:47;97084.19;;;12.55;100.00
13867;BME280;7003;46.982;15.248;2023-05-22T01:15:25;97093.41;;;12.58;100.00
13867;BME280;7003;46.982;15.248;2023-05-22T01:18:04;97109.81;;;12.72;100.00
13867;BME280;7003;46.982;15.248;2023-05-22T01:20:43;97152.44;;;12.68;100.00
13867;BME280;7003;46.982;15.248;2023-05-22T01:23:48;97157.47;;;12.86;100.00
13867;BME280;7003;46.982;15.248;2023-05-22T01:26:36;97141.19;;;13.03;100.00
13867;BME280;7003;46.982;15.248;2023-05-22T01:29:14;97148.75;;;13.13;100.00
13867;BME280;7003;46.982;15.248;2023-05-22T01:31:49;97140.81;;;13.17;100.00
13867;BME280;7003;46.982;15.248;2023-05-22T01:34:21;97135.38;;;13.13;100.00
13867;BME280;7003;46.982;15.248;2023-05-22T01:36:49;97126.34;;;13.18;100.00
13867;BME280;7003;46.982;15.248;2023-05-22T01:39:22;97110.59;;;13.28;100.00
13867;BME280;7003;46.982;15.248;2023-05-22T01:41:49;97111.97;;;13.22;100.00
13867;BME280;7003;46.982;15.248;2023-05-22T01:44:19;97112.75;;;13.23;100.00
13867;BME280;7003;46.982;15.248;2023-05-22T01:46:49;97114.06;;;13.29;100.00
13867;BME280;7003;46.982;15.248;2023-05-22T01:49:20;97112.44;;;13.12;100.00
13867;BME280;7003;46.982;15.248;2023-05-22T01:51:51;97123.78;;;13.09;100.00
13867;BME280;7003;46.982;15.248;2023-05-22T01:54:23;97119.88;;;13.19;100.00
13867;BME280;7003;46.982;15.248;2023-05-22T01:57:01;97115.06;;;13.24;100.00
13867;BME280;7003;46.982;15.248;2023-05-22T01:59:40;97107.50;;;13.26;100.00
13867;BME280;7003;46.982;15.248;2023-05-22T02:02:14;97105.59;;;13.27;100.00
13867;BME280;7003;46.982;15.248;2023-05-22T02:04:45;97097.66;;;13.15;100.00
13867;BME280;7003;46.982;15.248;2023-05-22T02:07:15;97098.84;;;13.17;100.00
13867;BME280;7003;46.982;15.248;2023-05-22T02:09:48;97092.19;;;13.11;100.00
13867;BME280;7003;46.982;15.248;2023-05-22T02:12:18;97097.09;;;13.09;100.00
13867;BME280;7003;46.982;15.248;2023-05-22T02:14:46;97091.84;;;13.13;100.00
13867;BME280;7003;46.982;15.248;2023-05-22T02:17:17;97096.19;;;13.17;100.00
13867;BME280;7003;46.982;15.248;2023-05-22T02:19:46;97085.22;;;13.06;100.00
13867;BME280;7003;46.982;15.248;2023-05-22T02:22:20;97080.22;;;13.05;100.00
13867;BME280;7003;46.982;15.248;2023-05-22T02:24:48;97076.41;;;12.90;100.00
13867;BME280;7003;46.982;15.248;2023-05-22T02:27:18;97073.41;;;12.92;100.00
13867;BME280;7003;46.982;15.248;2023-05-22T02:29:49;97074.16;;;12.92;100.00
13867;BME280;7003;46.982;15.248;2023-05-22T02:32:20;97076.25;;;12.99;100.00
13867;BME280;7003;46.982;15.248;2023-05-22T02:34:49;97068.66;;;12.85;100.00
13867;BME280;7003;46.982;15.248;2023-05-22T02:37:17;97070.31;;;12.78;100.00
13867;BME280;7003;46.982;15.248;2023-05-22T02:39:44;97076.72;;;12.89;100.00
13867;BME280;7003;46.982;15.248;2023-05-22T02:42:13;97070.94;;;12.87;100.00
13867;BME280;7003;46.982;15.248;2023-05-22T02:44:41;97075.19;;;12.88;100.00
13867;BME280;7003;46.982;15.248;2023-05-22T02:47:08;97076.88;;;13.08;100.00
13867;BME280;7003;46.982;15.248;2023-05-22T02:49:39;97072.69;;;12.95;100.00
13867;BME280;7003;46.982;15.248;2023-05-22T02:52:08;97070.91;;;12.99;100.00
13867;BME280;7003;46.982;15.248;2023-05-22T02:54:36;97076.13;;;12.95;100.00
13867;BME280;7003;46.982;15.248;2023-05-22T02:57:03;97067.09;;;12.84;100.00
13867;BME280;7003;46.982;15.248;2023-05-22T02:59:33;97068.78;;;12.77;100.00
13867;BME280;7003;46.982;15.248;2023-05-22T03:02:01;97069.66;;;12.81;100.00
13867;BME280;7003;46.982;15.248;2023-05-22T03:04:29;97068.53;;;12.82;100.00
13867;BME280;7003;46.982;15.248;2023-05-22T03:07:01;97070.13;;;12.70;100.00
13867;BME280;7003;46.982;15.248;2023-05-22T03:09:29;97068.69;;;12.73;100.00
13867;BME280;7003;46.982;15.248;2023-05-22T03:11:57;97069.56;;;12.77;100.00
13867;BME280;7003;46.982;15.248;2023-05-22T03:14:25;97069.00;;;12.71;100.00
13867;BME280;7003;46.982;15.248;2023-05-22T03:16:54;97073.53;;;12.55;100.00
13867;BME280;7003;46.982;15.248;2023-05-22T03:19:24;97074.28;;;12.68;100.00
13867;BME280;7003;46.982;15.248;2023-05-22T03:21:52;97073.00;;;12.50;100.00
13867;BME280;7003;46.982;15.248;2023-05-22T03:24:22;97067.47;;;12.43;100.00
13867;BME280;7003;46.982;15.248;2023-05-22T03:26:50;97073.91;;;12.42;100.00
13867;BME280;7003;46.982;15.248;2023-05-22T03:29:18;97071.53;;;12.52;100.00
13867;BME280;7003;46.982;15.248;2023-05-22T03:31:47;97065.38;;;12.36;100.00
13867;BME280;7003;46.982;15.248;2023-05-22T03:34:15;97069.34;;;12.42;100.00
13867;BME280;7003;46.982;15.248;2023-05-22T03:36:43;97066.94;;;12.37;100.00
13867;BME280;7003;46.982;15.248;2023-05-22T03:39:11;97063.16;;;12.38;100.00
13867;BME280;7003;46.982;15.248;2023-05-22T03:41:41;97063.22;;;12.42;100.00
13867;BME280;7003;46.982;15.248;2023-05-22T03:44:09;97062.44;;;12.41;100.00
13867;BME280;7003;46.982;15.248;2023-05-22T03:46:37;97064.25;;;12.37;100.00
13867;BME280;7003;46.982;15.248;2023-05-22T03:49:07;97056.91;;;12.46;100.00
13867;BME280;7003;46.982;15.248;2023-05-22T03:51:35;97065.00;;;12.50;100.00
13867;BME280;7003;46.982;15.248;2023-05-22T03:54:03;97065.03;;;12.38;100.00
13867;BME280;7003;46.982;15.248;2023-05-22T03:56:32;97066.69;;;12.42;100.00
13867;BME280;7003;46.982;15.248;2023-05-22T03:59:02;97070.78;;;12.52;100.00
13867;BME280;7003;46.982;15.248;2023-05-22T04:01:31;97064.69;;;12.39;100.00
13867;BME280;7003;46.982;15.248;2023-05-22T04:04:00;97068.88;;;12.52;100.00
13867;BME280;7003;46.982;15.248;2023-05-22T04:06:30;97065.88;;;12.54;100.00
13867;BME280;7003;46.982;15.248;2023-05-22T04:09:02;97067.31;;;12.51;100.00
13867;BME280;7003;46.982;15.248;2023-05-22T04:11:31;97065.25;;;12.45;100.00
13867;BME280;7003;46.982;15.248;2023-05-22T04:14:03;97070.31;;;12.50;100.00
13867;BME280;7003;46.982;15.248;2023-05-22T04:16:32;97060.88;;;12.52;100.00
13867;BME280;7003;46.982;15.248;2023-05-22T04:19:01;97064.84;;;12.58;100.00
13867;BME280;7003;46.982;15.248;2023-05-22T04:21:30;97065.50;;;12.67;100.00
13867;BME280;7003;46.982;15.248;2023-05-22T04:24:00;97061.91;;;12.76;100.00
13867;BME280;7003;46.982;15.248;2023-05-22T04:26:32;97063.88;;;12.79;100.00
13867;BME280;7003;46.982;15.248;2023-05-22T04:29:03;97070.63;;;12.88;100.00
13867;BME280;7003;46.982;15.248;2023-05-22T04:31:35;97061.69;;;12.96;100.00
13867;BME280;7003;46.982;15.248;2023-05-22T04:34:03;97074.75;;;13.01;100.00
13867;BME280;7003;46.982;15.248;2023-05-22T04:36:32;97071.09;;;13.06;100.00
13867;BME280;7003;46.982;15.248;2023-05-22T04:39:01;97077.72;;;13.12;100.00
13867;BME280;7003;46.982;15.248;2023-05-22T04:41:32;97074.66;;;13.26;100.00
13867;BME280;7003;46.982;15.248;2023-05-22T04:44:00;97066.31;;;13.27;100.00
13867;BME280;7003;46.982;15.248;2023-05-22T04:46:35;97070.09;;;13.26;100.00
13867;BME280;7003;46.982;15.248;2023-05-22T04:49:06;97064.44;;;13.43;100.00
13867;BME280;7003;46.982;15.248;2023-05-22T04:51:37;97065.63;;;13.62;100.00
13867;BME280;7003;46.982;15.248;2023-05-22T04:54:05;97065.41;;;13.86;100.00
13867;BME280;7003;46.982;15.248;2023-05-22T04:56:36;97069.44;;;14.11;100.00
13867;BME280;7003;46.982;15.248;2023-05-22T04:59:04;97070.94;;;14.28;100.00
13867;BME280;7003;46.982;15.248;2023-05-22T05:01:37;97076.06;;;14.52;100.00
13867;BME280;7003;46.982;15.248;2023-05-22T05:04:12;97071.56;;;14.76;100.00
13867;BME280;7003;46.982;15.248;2023-05-22T05:06:43;97068.44;;;14.74;100.00
13867;BME280;7003;46.982;15.248;2023-05-22T05:09:12;97079.28;;;15.00;100.00
13867;BME280;7003;46.982;15.248;2023-05-22T05:11:40;97073.66;;;15.28;100.00
13867;BME280;7003;46.982;15.248;2023-05-22T05:14:11;97073.59;;;15.47;100.00
13867;BME280;7003;46.982;15.248;2023-05-22T05:16:41;97084.38;;;15.73;100.00
13867;BME280;7003;46.982;15.248;2023-05-22T05:19:09;97093.56;;;15.72;100.00
13867;BME280;7003;46.982;15.248;2023-05-22T05:21:40;97089.16;;;15.84;100.00
13867;BME280;7003;46.982;15.248;2023-05-22T05:24:08;97095.78;;;16.16;100.00
13867;BME280;7003;46.982;15.248;2023-05-22T05:26:37;97091.13;;;16.13;100.00
13867;BME280;7003;46.982;15.248;2023-05-22T05:29:07;97083.94;;;16.50;100.00
13867;BME280;7003;46.982;15.248;2023-05-22T05:31:36;97092.34;;;16.75;100.00
13867;BME280;7003;46.982;15.248;2023-05-22T05:34:08;97086.41;;;16.92;100.00
13867;BME280;7003;46.982;15.248;2023-05-22T05:36:38;97084.69;;;17.11;100.00
13867;BME280;7003;46.982;15.248;2023-05-22T05:39:07;97089.09;;;17.29;100.00
13867;BME280;7003;46.982;15.248;2023-05-22T05:41:37;97086.34;;;17.63;100.00
13867;BME280;7003;46.982;15.248;2023-05-22T05:44:08;97085.91;;;17.61;100.00
13867;BME280;7003;46.982;15.248;2023-05-22T05:46:36;97084.56;;;17.81;100.00
13867;BME280;7003;46.982;15.248;2023-05-22T05:49:08;97093.53;;;17.96;100.00
13867;BME280;7003;46.982;15.248;2023-05-22T05:51:36;97084.69;;;17.99;100.00
13867;BME280;7003;46.982;15.248;2023-05-22T05:54:06;97096.72;;;18.16;100.00
13867;BME280;7003;46.982;15.248;2023-05-22T05:56:35;97086.06;;;18.33;100.00
13867;BME280;7003;46.982;15.248;2023-05-22T05:59:05;97091.53;;;17.89;100.00
13867;BME280;7003;46.982;15.248;2023-05-22T06:01:33;97081.38;;;18.23;100.00
13867;BME280;7003;46.982;15.248;2023-05-22T06:04:04;97076.34;;;18.15;100.00
13867;BME280;7003;46.982;15.248;2023-05-22T06:06:38;97079.34;;;18.06;100.00
13867;BME280;7003;46.982;15.248;2023-05-22T06:09:09;97082.13;;;18.20;100.00
13867;BME280;7003;46.982;15.248;2023-05-22T06:11:40;97085.63;;;18.28;100.00
13867;BME280;7003;46.982;15.248;2023-05-22T06:14:07;97085.72;;;18.45;100.00
13867;BME280;7003;46.982;15.248;2023-05-22T06:16:36;97080.38;;;18.49;100.00
13867;BME280;7003;46.982;15.248;2023-05-22T06:19:04;97082.13;;;18.96;100.00
13867;BME280;7003;46.982;15.248;2023-05-22T06:21:33;97081.03;;;19.18;100.00
13867;BME280;7003;46.982;15.248;2023-05-22T06:24:06;97080.69;;;19.52;100.00
13867;BME280;7003;46.982;15.248;2023-05-22T06:26:36;97086.13;;;19.55;100.00
13867;BME280;7003;46.982;15.248;2023-05-22T06:29:04;97086.88;;;19.56;100.00
13867;BME280;7003;46.982;15.248;2023-05-22T06:31:33;97079.16;;;19.76;100.00
13867;BME280;7003;46.982;15.248;2023-05-22T06:34:02;97074.53;;;20.01;100.00
13867;BME280;7003;46.982;15.248;2023-05-22T06:36:30;97076.09;;;19.95;100.00
13867;BME280;7003;46.982;15.248;2023-05-22T06:38:59;97087.66;;;20.03;100.00
13867;BME280;7003;46.982;15.248;2023-05-22T06:41:30;97073.75;;;20.04;100.00
13867;BME280;7003;46.982;15.248;2023-05-22T06:43:59;97079.91;;;20.15;100.00
13867;BME280;7003;46.982;15.248;2023-05-22T06:46:27;97084.09;;;20.48;100.00
13867;BME280;7003;46.982;15.248;2023-05-22T06:48:57;97074.09;;;20.42;100.00
13867;BME280;7003;46.982;15.248;2023-05-22T06:51:25;97081.69;;;20.75;100.00
13867;BME280;7003;46.982;15.248;2023-05-22T06:53:55;97078.97;;;20.82;100.00
13867;BME280;7003;46.982;15.248;2023-05-22T06:56:25;97087.44;;;20.84;100.00
13867;BME280;7003;46.982;15.248;2023-05-22T06:58:54;97076.63;;;20.88;100.00
13867;BME280;7003;46.982;15.248;2023-05-22T07:01:21;97080.09;;;20.88;100.00
13867;BME280;7003;46.982;15.248;2023-05-22T07:03:51;97078.84;;;21.00;100.00
13867;BME280;7003;46.982;15.248;2023-05-22T07:06:18;97080.34;;;21.11;100.00
13867;BME280;7003;46.982;15.248;2023-05-22T07:08:46;97077.28;;;21.09;100.00
13867;BME280;7003;46.982;15.248;2023-05-22T07:11:13;97082.34;;;21.63;100.00
13867;BME280;7003;46.982;15.248;2023-05-22T07:13:41;97083.84;;;22.19;100.00
13867;BME280;7003;46.982;15.248;2023-05-22T07:16:11;97078.66;;;22.32;100.00
13867;BME280;7003;46.982;15.248;2023-05-22T07:18:38;97087.19;;;22.68;100.00
13867;BME280;7003;46.982;15.248;2023-05-22T07:21:09;97086.28;;;22.81;100.00
13867;BME280;7003;46.982;15.248;2023-05-22T07:23:37;97084.00;;;22.73;100.00
13867;BME280;7003;46.982;15.248;2023-05-22T07:26:05;97083.16;;;23.13;100.00
13867;BME280;7003;46.982;15.248;2023-05-22T07:28:35;97080.38;;;23.44;100.00
13867;BME280;7003;46.982;15.248;2023-05-22T07:31:03;97076.34;;;23.55;100.00
13867;BME280;7003;46.982;15.248;2023-05-22T07:33:32;97081.63;;;23.89;100.00
13867;BME280;7003;46.982;15.248;2023-05-22T07:36:03;97082.28;;;23.97;100.00
13867;BME280;7003;46.982;15.248;2023-05-22T07:38:31;97077.38;;;23.88;97.30
13867;BME280;7003;46.982;15.248;2023-05-22T07:40:58;97079.19;;;23.95;97.99
13867;BME280;7003;46.982;15.248;2023-05-22T07:43:30;97078.66;;;24.03;94.27
13867;BME280;7003;46.982;15.248;2023-05-22T07:46:01;97074.00;;;24.27;84.71
13867;BME280;7003;46.982;15.248;2023-05-22T07:48:28;97068.91;;;24.49;87.35
13867;BME280;7003;46.982;15.248;2023-05-22T07:50:58;97064.47;;;24.39;80.82
13867;BME280;7003;46.982;15.248;2023-05-22T07:53:25;97069.09;;;24.62;81.46
13867;BME280;7003;46.982;15.248;2023-05-22T07:55:53;97071.44;;;24.99;82.96
13867;BME280;7003;46.982;15.248;2023-05-22T07:58:23;97063.38;;;25.12;77.75
13867;BME280;7003;46.982;15.248;2023-05-22T08:00:54;97058.94;;;25.02;74.89
13867;BME280;7003;46.982;15.248;2023-05-22T08:03:21;97061.16;;;25.07;75.66
13867;BME280;7003;46.982;15.248;2023-05-22T08:05:49;97060.06;;;24.84;66.92
13867;BME280;7003;46.982;15.248;2023-05-22T08:08:18;97064.41;;;25.18;70.85
13867;BME280;7003;46.982;15.248;2023-05-22T08:10:48;97062.72;;;25.40;69.02
13867;BME280;7003;46.982;15.248;2023-05-22T08:13:17;97047.16;;;25.41;68.05
13867;BME280;7003;46.982;15.248;2023-05-22T08:15:45;97060.66;;;25.64;65.41
13867;BME280;7003;46.982;15.248;2023-05-22T08:18:13;97060.47;;;25.87;65.34
13867;BME280;7003;46.982;15.248;2023-05-22T08:20:40;97057.44;;;26.14;66.78
13867;BME280;7003;46.982;15.248;2023-05-22T08:23:10;97058.28;;;26.11;65.43
13867;BME280;7003;46.982;15.248;2023-05-22T08:25:41;97053.53;;;26.31;65.17
13867;BME280;7003;46.982;15.248;2023-05-22T08:28:09;97050.44;;;26.29;63.95
13867;BME280;7003;46.982;15.248;2023-05-22T08:30:39;97052.38;;;26.45;61.68
13867;BME280;7003;46.982;15.248;2023-05-22T08:33:07;97040.69;;;26.44;59.98
13867;BME280;7003;46.982;15.248;2023-05-22T08:35:35;97045.03;;;26.42;57.51
13867;BME280;7003;46.982;15.248;2023-05-22T08:38:03;97040.69;;;26.44;62.83
13867;BME280;7003;46.982;15.248;2023-05-22T08:40:34;97043.25;;;26.64;62.25
13867;BME280;7003;46.982;15.248;2023-05-22T08:43:05;97038.81;;;26.83;62.32
13867;BME280;7003;46.982;15.248;2023-05-22T08:45:33;97037.13;;;27.02;60.70
13867;BME280;7003;46.982;15.248;2023-05-22T08:48:03;97042.13;;;27.29;60.81
13867;BME280;7003;46.982;15.248;2023-05-22T08:50:40;97038.75;;;27.12;57.97
13867;BME280;7003;46.982;15.248;2023-05-22T08:53:10;97033.63;;;27.27;59.45
13867;BME280;7003;46.982;15.248;2023-05-22T08:55:40;97036.22;;;27.43;56.56
13867;BME280;7003;46.982;15.248;2023-05-22T08:58:10;97036.03;;;27.25;58.06
13867;BME280;7003;46.982;15.248;2023-05-22T09:00:41;97034.03;;;27.50;54.67
13867;BME280;7003;46.982;15.248;2023-05-22T09:03:09;97030.38;;;27.91;53.06
13867;BME280;7003;46.982;15.248;2023-05-22T09:05:39;97032.25;;;27.94;52.19
13867;BME280;7003;46.982;15.248;2023-05-22T09:08:09;97033.81;;;27.70;51.62
13867;BME280;7003;46.982;15.248;2023-05-22T09:10:36;97034.13;;;27.72;52.86
13867;BME280;7003;46.982;15.248;2023-05-22T09:13:06;97031.97;;;27.67;52.49
13867;BME280;7003;46.982;15.248;2023-05-22T09:15:37;97028.38;;;26.24;56.72
13867;BME280;7003;46.982;15.248;2023-05-22T09:18:04;97030.75;;;25.93;57.00
13867;BME280;7003;46.982;15.248;2023-05-22T09:20:37;97036.06;;;26.13;59.13
13867;BME280;7003;46.982;15.248;2023-05-22T09:23:10;97036.09;;;26.83;56.68
13867;BME280;7003;46.982;15.248;2023-05-22T09:25:41;97038.41;;;26.97;57.35
13867;BME280;7003;46.982;15.248;2023-05-22T09:28:12;97030.34;;;27.06;57.08
13867;BME280;7003;46.982;15.248;2023-05-22T09:30:41;97024.75;;;26.97;54.68
13867;BME280;7003;46.982;15.248;2023-05-22T09:33:11;97033.75;;;27.23;59.65
13867;BME280;7003;46.982;15.248;2023-05-22T09:35:41;97030.66;;;27.72;57.30
13867;BME280;7003;46.982;15.248;2023-05-22T09:38:11;97028.38;;;27.45;56.74
13867;BME280;7003;46.982;15.248;2023-05-22T09:40:39;97027.47;;;27.73;55.29
13867;BME280;7003;46.982;15.248;2023-05-22T09:43:10;97027.31;;;27.89;52.99
13867;BME280;7003;46.982;15.248;2023-05-22T09:45:38;97040.34;;;27.73;53.12
13867;BME280;7003;46.982;15.248;2023-05-22T09:48:09;97039.31;;;27.07;56.80
13867;BME280;7003;46.982;15.248;2023-05-22T09:50:37;97030.22;;;27.48;54.98
13867;BME280;7003;46.982;15.248;2023-05-22T09:53:07;97028.31;;;27.83;52.71
13867;BME280;7003;46.982;15.248;2023-05-22T09:55:39;97021.63;;;28.31;52.73
13867;BME280;7003;46.982;15.248;2023-05-22T09:58:12;97014.28;;;28.71;50.56
13867;BME280;7003;46.982;15.248;2023-05-22T10:00:45;97016.63;;;28.60;45.25
13867;BME280;7003;46.982;15.248;2023-05-22T10:03:20;97022.19;;;28.26;47.41
13867;BME280;7003;46.982;15.248;2023-05-22T10:05:53;97034.22;;;27.81;47.04
13867;BME280;7003;46.982;15.248;2023-05-22T10:08:24;97020.81;;;27.49;47.38
13867;BME280;7003;46.982;15.248;2023-05-22T10:10:55;97016.63;;;27.82;45.59
13867;BME280;7003;46.982;15.248;2023-05-22T10:13:24;97016.69;;;26.39;43.66
13867;BME280;7003;46.982;15.248;2023-05-22T10:15:53;97005.16;;;26.03;47.49
13867;BME280;7003;46.982;15.248;2023-05-22T10:18:23;97010.56;;;26.19;55.81
13867;BME280;7003;46.982;15.248;2023-05-22T10:20:53;97007.34;;;26.66;53.60
13867;BME280;7003;46.982;15.248;2023-05-22T10:23:21;97003.91;;;26.91;50.30
13867;BME280;7003;46.982;15.248;2023-05-22T10:25:49;97000.94;;;27.48;49.57
13867;BME280;7003;46.982;15.248;2023-05-22T10:28:23;97006.72;;;26.74;50.21
13867;BME280;7003;46.982;15.248;2023-05-22T10:30:57;97007.97;;;26.44;50.73
13867;BME280;7003;46.982;15.248;2023-05-22T10:33:32;97002.22;;;26.80;54.37
13867;BME280;7003;46.982;15.248;2023-05-22T10:36:08;97005.03;;;26.64;48.48
13867;BME280;7003;46.982;15.248;2023-05-22T10:38:49;96998.78;;;27.05;48.14
13867;BME280;7003;46.982;15.248;2023-05-22T10:41:21;96999.97;;;26.79;47.26
13867;BME280;7003;46.982;15.248;2023-05-22T10:43:49;96995.97;;;27.09;56.16
13867;BME280;7003;46.982;15.248;2023-05-22T10:46:19;96996.91;;;27.53;48.38
13867;BME280;7003;46.982;15.248;2023-05-22T10:48:52;96993.09;;;27.38;55.68
13867;BME280;7003;46.982;15.248;2023-05-22T10:51:21;96994.94;;;27.88;52.15
13867;BME280;7003;46.982;15.248;2023-05-22T10:53:50;96994.97;;;27.15;46.22
13867;BME280;7003;46.982;15.248;2023-05-22T10:56:19;96992.22;;;27.41;56.99
13867;BME280;7003;46.982;15.248;2023-05-22T10:58:55;96979.63;;;27.43;49.61
13867;BME280;7003;46.982;15.248;2023-05-22T11:01:25;96982.91;;;27.64;49.86
13867;BME280;7003;46.982;15.248;2023-05-22T11:03:57;96973.38;;;27.68;42.80
13867;BME280;7003;46.982;15.248;2023-05-22T11:06:35;96976.97;;;27.65;44.93
13867;BME280;7003;46.982;15.248;2023-05-22T11:09:25;96962.97;;;27.03;46.49
13867;BME280;7003;46.982;15.248;2023-05-22T11:12:13;96969.72;;;27.37;51.00
13867;BME280;7003;46.982;15.248;2023-05-22T11:14:48;96952.00;;;27.41;49.87
13867;BME280;7003;46.982;15.248;2023-05-22T11:17:16;96950.44;;;27.66;51.52
13867;BME280;7003;46.982;15.248;2023-05-22T11:19:56;96951.38;;;28.06;49.32
13867;BME280;7003;46.982;15.248;2023-05-22T11:22:30;96947.94;;;27.93;49.36
13867;BME280;7003;46.982;15.248;2023-05-22T11:25:03;96944.69;;;27.85;45.64
13867;BME280;7003;46.982;15.248;2023-05-22T11:27:32;96945.41;;;27.17;45.71
13867;BME280;7003;46.982;15.248;2023-05-22T11:30:00;96942.06;;;27.35;47.54
13867;BME280;7003;46.982;15.248;2023-05-22T11:32:30;96946.56;;;27.76;48.67
13867;BME280;7003;46.982;15.248;2023-05-22T11:35:00;96943.94;;;27.38;47.33
13867;BME280;7003;46.982;15.248;2023-05-22T11:37:30;96956.28;;;27.30;50.97
13867;BME280;7003;46.982;15.248;2023-05-22T11:40:01;96939.19;;;28.20;45.42
13867;BME280;7003;46.982;15.248;2023-05-22T11:42:29;96933.09;;;27.81;43.89
13867;BME280;7003;46.982;15.248;2023-05-22T11:44:57;96936.38;;;27.42;46.09
13867;BME280;7003;46.982;15.248;2023-05-22T11:47:25;96925.81;;;28.22;47.11
13867;BME280;7003;46.982;15.248;2023-05-22T11:49:56;96930.88;;;28.54;44.93
13867;BME280;7003;46.982;15.248;2023-05-22T11:52:31;96926.59;;;28.22;44.80
13867;BME280;7003;46.982;15.248;2023-05-22T11:54:59;96934.06;;;27.87;43.68
13867;BME280;7003;46.982;15.248;2023-05-22T11:57:27;96936.00;;;27.65;50.59
13867;BME280;7003;46.982;15.248;2023-05-22T11:59:58;96916.75;;;28.34;46.16
13867;BME280;7003;46.982;15.248;2023-05-22T12:02:26;96925.94;;;28.71;45.22
13867;BME280;7003;46.982;15.248;2023-05-22T12:04:53;96932.94;;;29.21;45.44
13867;BME280;7003;46.982;15.248;2023-05-22T12:07:25;96914.16;;;29.60;43.53
13867;BME280;7003;46.982;15.248;2023-05-22T12:09:57;96921.66;;;29.01;40.06
13867;BME280;7003;46.982;15.248;2023-05-22T12:12:29;96919.00;;;28.79;44.03
13867;BME280;7003;46.982;15.248;2023-05-22T12:14:57;96920.91;;;29.09;41.79
13867;BME280;7003;46.982;15.248;2023-05-22T12:17:24;96912.03;;;28.56;42.53
13867;BME280;7003;46.982;15.248;2023-05-22T12:19:56;96918.94;;;28.70;43.10
13867;BME280;7003;46.982;15.248;2023-05-22T12:22:27;96913.00;;;27.41;48.49
13867;BME280;7003;46.982;15.248;2023-05-22T12:24:58;96915.66;;;28.22;48.10
13867;BME280;7003;46.982;15.248;2023-05-22T12:27:29;96915.06;;;28.58;43.15
13867;BME280;7003;46.982;15.248;2023-05-22T12:30:07;96916.69;;;28.16;43.60
13867;BME280;7003;46.982;15.248;2023-05-22T12:32:35;96914.88;;;27.78;41.79
13867;BME280;7003;46.982;15.248;2023-05-22T12:35:13;96909.16;;;26.91;43.99
13867;BME280;7003;46.982;15.248;2023-05-22T12:37:46;96916.03;;;27.43;43.94
13867;BME280;7003;46.982;15.248;2023-05-22T12:40:16;96907.78;;;28.24;42.94
13867;BME280;7003;46.982;15.248;2023-05-22T12:42:47;96897.59;;;28.56;46.99
13867;BME280;7003;46.982;15.248;2023-05-22T12:45:14;96894.31;;;28.39;43.63
13867;BME280;7003;46.982;15.248;2023-05-22T12:47:45;96900.94;;;28.29;39.64
13867;BME280;7003;46.982;15.248;2023-05-22T12:50:12;96903.84;;;28.65;39.03
13867;BME280;7003;46.982;15.248;2023-05-22T12:52:40;96891.38;;;29.04;37.95
13867;BME280;7003;46.982;15.248;2023-05-22T12:55:10;96902.78;;;28.94;41.71
13867;BME280;7003;46.982;15.248;2023-05-22T12:57:39;96905.59;;;27.98;38.37
13867;BME280;7003;46.982;15.248;2023-05-22T13:00:07;96899.47;;;28.37;41.13
13867;BME280;7003;46.982;15.248;2023-05-22T13:02:36;96892.84;;;28.47;40.87
13867;BME280;7003;46.982;15.248;2023-05-22T13:05:04;96892.19;;;28.43;41.78
13867;BME280;7003;46.982;15.248;2023-05-22T13:07:32;96896.41;;;28.66;43.88
13867;BME280;7003;46.982;15.248;2023-05-22T13:09:59;96890.31;;;28.62;40.79